createdAt,value
2023-02-11T00:01:10.195Z,53.63
2023-02-11T00:03:37.215Z,48.53
2023-02-11T00:06:06.417Z,39.97
2023-02-11T00:08:32.917Z,49.15
2023-02-11T00:11:01.668Z,46.25
2023-02-11T00:13:28.228Z,50.42
2023-02-11T00:15:55.406Z,50.65
2023-02-11T00:18:21.929Z,49.58
2023-02-11T00:20:48.429Z,47.00
2023-02-11T00:23:15.307Z,42.20
2023-02-11T00:25:43.799Z,46.03
2023-02-11T00:28:11.043Z,50.25
2023-02-11T00:30:37.652Z,46.90
2023-02-11T00:33:04.407Z,48.50
2023-02-11T00:35:30.892Z,51.80
2023-02-11T00:37:57.322Z,45.13
2023-02-11T00:40:23.798Z,44.80
2023-02-11T00:42:51.950Z,46.90
2023-02-11T00:45:20.832Z,46.40
2023-02-11T00:47:47.442Z,43.40
2023-02-11T00:50:13.919Z,49.80
2023-02-11T00:52:40.327Z,45.63
2023-02-11T00:55:07.669Z,48.08
2023-02-11T00:57:34.440Z,47.75
2023-02-11T01:00:00.910Z,44.60
2023-02-11T01:02:27.399Z,45.05
2023-02-11T01:04:53.905Z,43.65
2023-02-11T01:07:20.308Z,48.05
2023-02-11T01:09:46.721Z,45.45
2023-02-11T01:12:13.153Z,46.50
2023-02-11T01:14:39.576Z,47.60
2023-02-11T01:17:06.478Z,49.22
2023-02-11T01:19:33.196Z,52.83
2023-02-11T01:21:59.770Z,46.80
2023-02-11T01:24:26.264Z,48.33
2023-02-11T01:26:52.714Z,50.28
2023-02-11T01:29:19.437Z,48.42
2023-02-11T01:31:45.878Z,43.17
2023-02-11T01:34:12.551Z,44.75
2023-02-11T01:36:39.005Z,45.25
2023-02-11T01:39:05.520Z,51.95
2023-02-11T01:41:32.167Z,46.30
2023-02-11T01:43:58.607Z,51.72
2023-02-11T01:46:35.210Z,46.45
2023-02-11T01:49:06.547Z,45.60
2023-02-11T01:51:41.517Z,41.70
2023-02-11T01:54:28.760Z,47.33
2023-02-11T01:57:17.968Z,42.33
2023-02-11T01:59:50.561Z,34.35
2023-02-11T02:02:21.591Z,39.80
2023-02-11T02:05:02.729Z,39.97
2023-02-11T02:07:36.248Z,34.85
2023-02-11T02:10:17.044Z,41.35
2023-02-11T02:12:43.625Z,42.90
2023-02-11T02:15:25.808Z,39.55
2023-02-11T02:18:27.663Z,38.42
2023-02-11T02:21:22.065Z,44.13
2023-02-11T02:24:16.753Z,38.20
2023-02-11T02:27:08.098Z,38.95
2023-02-11T02:30:02.528Z,41.28
2023-02-11T02:32:37.954Z,40.88
2023-02-11T02:35:22.923Z,41.15
2023-02-11T02:38:01.608Z,35.00
2023-02-11T02:40:33.373Z,42.35
2023-02-11T02:43:01.895Z,41.92
2023-02-11T02:45:28.493Z,38.47
2023-02-11T02:47:55.034Z,42.20
2023-02-11T02:50:30.197Z,44.50
2023-02-11T02:53:06.187Z,39.70
2023-02-11T02:55:49.056Z,44.85
2023-02-11T02:58:46.041Z,44.83
2023-02-11T03:01:25.604Z,43.65
2023-02-11T03:04:06.429Z,42.72
2023-02-11T03:06:35.842Z,39.53
2023-02-11T03:09:24.245Z,41.03
2023-02-11T03:11:50.793Z,37.85
2023-02-11T03:14:19.006Z,39.42
2023-02-11T03:16:49.057Z,41.55
2023-02-11T03:19:21.369Z,42.38
2023-02-11T03:21:51.699Z,41.13
2023-02-11T03:24:35.551Z,41.80
2023-02-11T03:27:12.236Z,43.88
2023-02-11T03:29:56.451Z,37.70
2023-02-11T03:32:31.977Z,35.30
2023-02-11T03:35:05.583Z,33.83
2023-02-11T03:37:37.780Z,37.38
2023-02-11T03:40:12.355Z,33.50
2023-02-11T03:42:44.229Z,32.13
2023-02-11T03:45:14.301Z,38.22
2023-02-11T03:47:46.353Z,39.95
2023-02-11T03:50:15.337Z,36.83
2023-02-11T03:52:42.472Z,36.47
2023-02-11T03:55:15.843Z,36.13
2023-02-11T03:57:42.361Z,35.40
2023-02-11T04:00:10.424Z,39.60
2023-02-11T04:02:39.504Z,34.05
2023-02-11T04:05:10.405Z,36.58
2023-02-11T04:07:36.845Z,36.92
2023-02-11T04:10:04.305Z,35.85
2023-02-11T04:12:30.766Z,36.20
2023-02-11T04:14:57.201Z,37.15
2023-02-11T04:17:24.171Z,36.47
2023-02-11T04:19:50.583Z,36.88
2023-02-11T04:22:17.008Z,38.25
2023-02-11T04:24:44.159Z,35.33
2023-02-11T04:27:11.658Z,37.78
2023-02-11T04:29:38.069Z,40.17
2023-02-11T04:32:04.616Z,39.78
2023-02-11T04:34:31.317Z,40.70
2023-02-11T04:36:57.859Z,35.78
2023-02-11T04:39:24.337Z,35.15
2023-02-11T04:41:50.736Z,37.80
2023-02-11T04:44:17.133Z,38.05
2023-02-11T04:46:43.573Z,36.35
2023-02-11T04:49:13.480Z,35.65
2023-02-11T04:51:40.179Z,35.22
2023-02-11T04:54:06.620Z,36.65
2023-02-11T04:56:33.111Z,33.25
2023-02-11T04:58:59.521Z,44.72
2023-02-11T05:01:26.157Z,40.25
2023-02-11T05:03:52.681Z,37.47
2023-02-11T05:06:19.154Z,40.35
2023-02-11T05:08:45.602Z,41.97
2023-02-11T05:11:20.645Z,40.17
2023-02-11T05:13:47.510Z,42.05
2023-02-11T05:16:15.266Z,37.80
2023-02-11T05:18:43.190Z,43.78
2023-02-11T05:21:11.781Z,36.10
2023-02-11T05:23:39.583Z,37.85
2023-02-11T05:26:07.242Z,34.05
2023-02-11T05:28:34.015Z,36.63
2023-02-11T05:31:01.045Z,33.47
2023-02-11T05:33:27.747Z,42.00
2023-02-11T05:36:05.850Z,36.33
2023-02-11T05:38:33.294Z,34.63
2023-02-11T05:41:00.032Z,35.67
2023-02-11T05:43:26.461Z,38.97
2023-02-11T05:45:53.388Z,37.90
2023-02-11T05:48:19.988Z,39.22
2023-02-11T05:50:46.451Z,38.97
2023-02-11T05:53:13.035Z,38.05
2023-02-11T05:55:39.747Z,33.10
2023-02-11T05:58:07.030Z,40.70
2023-02-11T06:00:34.435Z,36.33
2023-02-11T06:03:00.981Z,36.47
2023-02-11T06:05:27.478Z,35.97
2023-02-11T06:07:54.111Z,38.17
2023-02-11T06:10:20.644Z,38.90
2023-02-11T06:12:47.124Z,40.35
2023-02-11T06:15:13.654Z,46.35
2023-02-11T06:17:40.076Z,33.63
2023-02-11T06:20:08.563Z,35.10
2023-02-11T06:22:35.287Z,34.67
2023-02-11T06:25:02.448Z,39.05
2023-02-11T06:27:29.534Z,40.95
2023-02-11T06:29:55.953Z,35.03
2023-02-11T06:32:42.300Z,30.83
2023-02-11T06:35:11.459Z,37.58
2023-02-11T06:37:38.496Z,31.77
2023-02-11T06:40:05.374Z,30.88
2023-02-11T06:42:31.840Z,32.47
2023-02-11T06:45:01.277Z,33.05
2023-02-11T06:47:27.721Z,31.50
2023-02-11T06:49:54.269Z,43.45
2023-02-11T06:52:20.717Z,34.10
2023-02-11T06:54:47.134Z,39.60
2023-02-11T06:57:13.584Z,32.88
2023-02-11T06:59:40.016Z,36.10
2023-02-11T07:02:06.898Z,30.73
2023-02-11T07:04:33.306Z,32.30
2023-02-11T07:06:59.761Z,34.13
2023-02-11T07:09:26.200Z,35.75
2023-02-11T07:11:53.014Z,33.92
2023-02-11T07:14:19.614Z,40.25
2023-02-11T07:16:46.079Z,34.35
2023-02-11T07:19:12.466Z,37.60
2023-02-11T07:21:39.013Z,37.20
2023-02-11T07:24:11.049Z,35.50
2023-02-11T07:26:37.973Z,38.13
2023-02-11T07:29:04.395Z,32.03
2023-02-11T07:31:31.319Z,32.28
2023-02-11T07:34:00.228Z,31.73
2023-02-11T07:36:28.040Z,31.50
2023-02-11T07:38:54.677Z,30.48
2023-02-11T07:41:23.291Z,37.75
2023-02-11T07:43:50.353Z,35.08
2023-02-11T07:46:35.752Z,31.60
2023-02-11T07:49:02.358Z,41.03
2023-02-11T07:51:30.757Z,36.03
2023-02-11T07:53:59.133Z,35.08
2023-02-11T07:56:26.275Z,36.70
2023-02-11T07:59:01.140Z,32.17
2023-02-11T08:01:30.451Z,34.08
2023-02-11T08:04:00.096Z,30.95
2023-02-11T08:06:29.372Z,35.55
2023-02-11T08:08:55.833Z,34.00
2023-02-11T08:11:25.588Z,34.67
2023-02-11T08:13:53.116Z,38.03
2023-02-11T08:16:28.081Z,30.98
2023-02-11T08:18:57.793Z,34.42
2023-02-11T08:21:28.544Z,28.67
2023-02-11T08:23:55.916Z,28.85
2023-02-11T08:26:26.186Z,35.38
2023-02-11T08:28:54.892Z,29.35
2023-02-11T08:31:24.208Z,28.80
2023-02-11T08:33:51.240Z,26.95
2023-02-11T08:36:23.623Z,30.63
2023-02-11T08:38:50.324Z,29.75
2023-02-11T08:41:17.453Z,27.75
2023-02-11T08:43:45.013Z,26.65
2023-02-11T08:46:17.031Z,28.35
2023-02-11T08:48:47.743Z,28.83
2023-02-11T08:51:18.574Z,28.17
2023-02-11T08:53:46.239Z,29.85
2023-02-11T08:56:13.996Z,28.05
2023-02-11T08:58:40.798Z,25.67
2023-02-11T09:01:22.300Z,26.90
2023-02-11T09:03:49.508Z,29.00
2023-02-11T09:06:17.608Z,26.02
2023-02-11T09:08:51.654Z,30.70
2023-02-11T09:11:20.617Z,27.25
2023-02-11T09:16:26.122Z,28.20
2023-02-11T09:18:53.314Z,27.38
2023-02-11T09:21:20.304Z,29.58
2023-02-11T09:23:47.901Z,30.48
2023-02-11T09:26:25.796Z,30.45
2023-02-11T09:28:52.659Z,28.77
2023-02-11T09:31:24.736Z,27.55
2023-02-11T09:33:55.221Z,27.67
2023-02-11T09:36:28.952Z,25.08
2023-02-11T09:38:57.483Z,29.90
2023-02-11T09:41:23.845Z,30.13
2023-02-11T09:43:57.139Z,24.25
2023-02-11T09:46:25.890Z,29.60
2023-02-11T09:48:57.398Z,25.20
2023-02-11T09:51:39.741Z,27.45
2023-02-11T09:54:15.398Z,39.90
2023-02-11T09:56:41.904Z,26.42
2023-02-11T09:59:14.382Z,24.83
2023-02-11T10:01:47.958Z,26.70
2023-02-11T10:04:39.707Z,26.63
2023-02-11T10:07:25.341Z,25.77
2023-02-11T10:10:13.010Z,26.35
2023-02-11T10:12:58.208Z,29.60
2023-02-11T10:15:44.912Z,33.72
2023-02-11T10:18:47.016Z,30.70
2023-02-11T10:21:41.459Z,33.80
2023-02-11T10:24:12.764Z,28.02
2023-02-11T10:26:40.630Z,26.48
2023-02-11T10:29:42.121Z,27.13
2023-02-11T10:32:44.440Z,27.00
2023-02-11T10:35:21.233Z,31.60
2023-02-11T10:37:48.183Z,23.77
2023-02-11T10:40:25.510Z,23.20
2023-02-11T10:42:55.843Z,30.75
2023-02-11T10:45:25.164Z,29.58
2023-02-11T10:47:51.773Z,28.77
2023-02-11T10:50:25.367Z,26.90
2023-02-11T10:52:52.102Z,24.85
2023-02-11T10:55:22.101Z,25.42
2023-02-11T10:58:02.955Z,23.67
2023-02-11T11:00:40.172Z,23.38
2023-02-11T11:03:19.815Z,26.65
2023-02-11T11:05:55.076Z,22.90
2023-02-11T11:08:37.277Z,31.90
2023-02-11T11:11:18.519Z,26.33
2023-02-11T11:13:54.290Z,30.27
2023-02-11T11:16:25.225Z,23.77
2023-02-11T11:19:13.693Z,22.85
2023-02-11T11:21:46.016Z,24.08
2023-02-11T11:24:27.942Z,29.92
2023-02-11T11:26:57.089Z,27.65
2023-02-11T11:29:34.812Z,27.73
2023-02-11T11:32:27.905Z,27.70
2023-02-11T11:35:02.695Z,28.00
2023-02-11T11:37:32.193Z,27.65
2023-02-11T11:40:21.937Z,32.63
2023-02-11T11:43:04.508Z,30.25
2023-02-11T11:45:30.981Z,31.50
2023-02-11T11:48:21.548Z,41.70
2023-02-11T11:50:53.624Z,35.42
2023-02-11T11:53:39.497Z,32.67
2023-02-11T11:56:24.273Z,35.78
2023-02-11T11:58:51.195Z,40.80
2023-02-11T12:01:50.491Z,31.30
2023-02-11T12:04:54.102Z,30.65
2023-02-11T12:07:32.802Z,27.92
2023-02-11T12:10:28.966Z,27.45
2023-02-11T12:13:08.459Z,28.00
2023-02-11T12:16:07.740Z,37.42
2023-02-11T12:19:02.433Z,30.25
2023-02-11T12:24:29.169Z,41.78
2023-02-11T12:27:19.968Z,37.75
2023-02-11T12:30:03.293Z,33.38
2023-02-11T12:32:43.839Z,41.47
2023-02-11T12:35:30.981Z,42.80
2023-02-11T12:38:22.298Z,30.20
2023-02-11T12:41:04.695Z,36.90
2023-02-11T12:43:40.182Z,31.73
2023-02-11T12:46:33.428Z,35.50
2023-02-11T12:49:05.811Z,28.92
2023-02-11T12:51:32.215Z,31.50
2023-02-11T12:54:17.287Z,38.05
2023-02-11T12:56:50.771Z,36.58
2023-02-11T12:59:30.566Z,39.90
2023-02-11T13:01:59.588Z,29.88
2023-02-11T13:04:33.324Z,30.35
2023-02-11T13:07:05.520Z,42.13
2023-02-11T13:09:51.225Z,36.03
2023-02-11T13:12:37.130Z,33.05
2023-02-11T13:15:07.667Z,31.48
2023-02-11T13:17:41.391Z,30.58
2023-02-11T13:20:21.293Z,30.38
2023-02-11T13:23:02.881Z,30.23
2023-02-11T13:25:33.434Z,28.25
2023-02-11T13:28:25.062Z,26.30
2023-02-11T13:31:01.923Z,33.50
2023-02-11T13:33:36.588Z,37.15
2023-02-11T13:36:04.707Z,34.38
2023-02-11T13:38:32.446Z,36.97
2023-02-11T13:41:22.276Z,29.40
2023-02-11T13:44:10.554Z,38.17
2023-02-11T13:46:54.326Z,43.08
2023-02-11T13:49:24.975Z,32.67
2023-02-11T13:51:52.654Z,36.13
2023-02-11T13:54:24.950Z,31.98
2023-02-11T13:57:16.240Z,30.63
2023-02-11T13:59:42.572Z,33.45
2023-02-11T14:02:51.243Z,29.92
2023-02-11T14:05:49.043Z,32.55
2023-02-11T14:08:42.733Z,37.30
2023-02-11T14:11:24.203Z,37.47
2023-02-11T14:13:50.551Z,30.90
2023-02-11T14:16:36.454Z,31.58
2023-02-11T14:19:06.131Z,33.90
2023-02-11T14:21:39.395Z,26.15
2023-02-11T14:24:06.938Z,29.92
2023-02-11T14:26:42.384Z,37.83
2023-02-11T14:29:17.941Z,36.53
2023-02-11T14:31:44.413Z,30.73
2023-02-11T14:34:48.586Z,28.95
2023-02-11T14:37:30.590Z,31.70
2023-02-11T14:40:31.827Z,28.40
2023-02-11T14:43:06.220Z,34.45
2023-02-11T14:45:35.463Z,30.20
2023-02-11T14:48:15.089Z,47.33
2023-02-11T14:50:44.653Z,67.93
2023-02-11T14:53:17.558Z,43.60
2023-02-11T14:55:47.227Z,31.02
2023-02-11T14:58:18.164Z,34.67
2023-02-11T15:00:57.018Z,29.70
2023-02-11T15:03:41.386Z,35.78
2023-02-11T15:06:21.078Z,34.50
2023-02-11T15:08:54.417Z,34.92
2023-02-11T15:11:23.786Z,33.50
2023-02-11T15:13:52.572Z,29.45
2023-02-11T15:16:24.093Z,31.15
2023-02-11T15:18:55.109Z,37.83
2023-02-11T15:21:30.405Z,41.30
2023-02-11T15:26:24.561Z,49.33
2023-02-11T15:28:53.617Z,50.40
2023-02-11T15:31:27.933Z,85.13
2023-02-11T15:33:54.618Z,64.30
2023-02-11T15:36:28.493Z,101.88
2023-02-11T15:39:18.153Z,109.45
2023-02-11T15:41:44.761Z,100.97
2023-02-11T15:44:28.559Z,93.32
2023-02-11T15:46:55.280Z,61.60
2023-02-11T15:49:23.226Z,105.55
2023-02-11T15:51:50.670Z,85.18
2023-02-11T15:54:24.118Z,77.03
2023-02-11T15:56:52.408Z,43.47
2023-02-11T15:59:30.851Z,41.80
2023-02-11T16:02:16.037Z,35.88
2023-02-11T16:04:52.049Z,109.82
2023-02-11T16:07:40.563Z,68.80
2023-02-11T16:10:39.524Z,55.65
2023-02-11T16:13:05.877Z,42.35
2023-02-11T16:15:38.115Z,30.85
2023-02-11T16:18:14.968Z,32.25
2023-02-11T16:20:46.333Z,34.55
2023-02-11T16:23:21.568Z,31.33
2023-02-11T16:25:48.201Z,41.90
2023-02-11T16:28:16.308Z,38.80
2023-02-11T16:30:43.319Z,33.65
2023-02-11T16:33:11.234Z,42.13
2023-02-11T16:35:38.325Z,38.00
2023-02-11T16:38:04.734Z,35.70
2023-02-11T16:40:31.155Z,35.80
2023-02-11T16:42:57.593Z,34.88
2023-02-11T16:45:24.070Z,42.42
2023-02-11T16:47:50.525Z,43.88
2023-02-11T16:50:25.595Z,40.45
2023-02-11T16:52:52.695Z,38.08
2023-02-11T16:55:21.942Z,32.17
2023-02-11T16:57:48.856Z,34.15
2023-02-11T17:00:17.375Z,34.05
2023-02-11T17:02:44.050Z,30.58
2023-02-11T17:05:20.124Z,29.27
2023-02-11T17:07:46.817Z,32.15
2023-02-11T17:10:15.350Z,28.38
2023-02-11T17:12:41.735Z,30.42
2023-02-11T17:15:08.613Z,35.55
2023-02-11T17:17:35.286Z,30.10
2023-02-11T17:20:01.727Z,31.25
2023-02-11T17:22:28.141Z,34.30
2023-02-11T17:24:57.073Z,38.28
2023-02-11T17:29:49.812Z,42.08
2023-02-11T17:32:16.520Z,39.08
2023-02-11T17:34:43.004Z,39.30
2023-02-11T17:37:09.604Z,38.35
2023-02-11T17:39:36.877Z,37.22
2023-02-11T17:42:03.948Z,49.03
2023-02-11T17:44:30.335Z,47.95
2023-02-11T17:46:56.752Z,44.20
2023-02-11T17:49:23.144Z,41.22
2023-02-11T17:51:49.652Z,47.95
2023-02-11T17:54:18.475Z,49.38
2023-02-11T17:56:46.261Z,39.97
2023-02-11T17:59:13.404Z,32.25
2023-02-11T18:01:41.187Z,32.03
2023-02-11T18:04:10.519Z,39.42
2023-02-11T18:06:37.010Z,37.05
2023-02-11T18:09:04.351Z,37.78
2023-02-11T18:11:33.309Z,38.38
2023-02-11T18:14:04.595Z,36.10
2023-02-11T18:16:31.465Z,37.53
2023-02-11T18:18:58.394Z,39.42
2023-02-11T18:21:25.290Z,36.25
2023-02-11T18:23:51.857Z,32.67
2023-02-11T18:26:20.790Z,35.60
2023-02-11T18:28:47.547Z,31.90
2023-02-11T18:31:14.754Z,37.35
2023-02-11T18:33:42.241Z,33.47
2023-02-11T18:36:13.786Z,30.75
2023-02-11T18:38:41.048Z,38.97
2023-02-11T18:41:08.266Z,43.90
2023-02-11T18:43:35.515Z,39.83
2023-02-11T18:46:07.137Z,38.08
2023-02-11T18:48:33.571Z,39.08
2023-02-11T18:50:59.989Z,42.35
2023-02-11T18:53:26.426Z,43.97
2023-02-11T18:55:53.676Z,47.70
2023-02-11T18:58:21.319Z,44.75
2023-02-11T19:00:48.784Z,38.28
2023-02-11T19:03:15.280Z,37.03
2023-02-11T19:05:51.111Z,35.33
2023-02-11T19:08:17.746Z,36.05
2023-02-11T19:10:46.947Z,34.70
2023-02-11T19:13:13.867Z,37.03
2023-02-11T19:15:44.911Z,33.72
2023-02-11T19:18:13.783Z,38.03
2023-02-11T19:20:44.192Z,41.30
2023-02-11T19:23:11.307Z,33.83
2023-02-11T19:25:38.290Z,36.65
2023-02-11T19:28:10.394Z,37.75
2023-02-11T19:30:36.976Z,42.38
2023-02-11T19:33:03.492Z,38.97
2023-02-11T19:35:30.018Z,39.35
2023-02-11T19:37:56.429Z,36.97
2023-02-11T19:40:22.891Z,36.45
2023-02-11T19:42:49.296Z,36.00
2023-02-11T19:45:15.754Z,33.60
2023-02-11T19:47:42.324Z,35.38
2023-02-11T19:50:09.464Z,35.08
2023-02-11T19:52:40.290Z,32.55
2023-02-11T19:55:07.902Z,34.47
2023-02-11T19:57:34.428Z,33.25
2023-02-11T20:00:01.427Z,38.80
2023-02-11T20:02:29.240Z,40.47
2023-02-11T20:04:55.748Z,34.42
2023-02-11T20:07:22.207Z,30.88
2023-02-11T20:09:48.651Z,29.30
2023-02-11T20:12:15.127Z,35.03
2023-02-11T20:14:41.580Z,26.65
2023-02-11T20:17:08.006Z,31.80
2023-02-11T20:19:34.541Z,32.78
2023-02-11T20:22:01.011Z,32.10
2023-02-11T20:24:27.445Z,30.23
2023-02-11T20:26:56.047Z,33.20
2023-02-11T20:29:23.743Z,30.83
2023-02-11T20:31:50.713Z,29.20
2023-02-11T20:34:17.900Z,32.08
2023-02-11T20:36:51.724Z,34.30
2023-02-11T20:39:21.659Z,33.63
2023-02-11T20:41:48.628Z,30.98
2023-02-11T20:44:15.496Z,27.55
2023-02-11T20:46:46.392Z,35.85
2023-02-11T20:49:15.288Z,34.08
2023-02-11T20:51:42.294Z,33.60
2023-02-11T20:54:13.378Z,35.90
2023-02-11T20:56:39.889Z,43.25
2023-02-11T20:59:07.244Z,34.47
2023-02-11T21:01:37.113Z,33.22
2023-02-11T21:04:07.130Z,39.22
2023-02-11T21:06:42.946Z,31.33
2023-02-11T21:09:13.512Z,34.92
2023-02-11T21:11:40.487Z,34.35
2023-02-11T21:14:07.277Z,40.58
2023-02-11T21:16:33.993Z,38.00
2023-02-11T21:19:03.409Z,40.97
2023-02-11T21:21:30.758Z,39.60
2023-02-11T21:23:58.448Z,39.13
2023-02-11T21:26:25.843Z,36.47
2023-02-11T21:28:52.572Z,40.13
2023-02-11T21:31:23.136Z,38.13
2023-02-11T21:33:51.154Z,35.80
2023-02-11T21:36:17.913Z,35.30
2023-02-11T21:38:44.756Z,33.90
2023-02-11T21:41:11.770Z,32.92
2023-02-11T21:43:38.729Z,31.08
2023-02-11T21:46:10.445Z,34.20
2023-02-11T21:48:37.224Z,33.38
2023-02-11T21:51:09.596Z,30.85
2023-02-11T21:53:36.037Z,30.33
2023-02-11T21:56:12.309Z,31.70
2023-02-11T21:58:38.949Z,34.10
2023-02-11T22:01:17.532Z,27.98
2023-02-11T22:03:44.721Z,34.15
2023-02-11T22:06:16.727Z,32.15
2023-02-11T22:08:43.268Z,29.98
2023-02-11T22:11:12.291Z,29.63
2023-02-11T22:16:08.236Z,31.77
2023-02-11T22:18:35.022Z,32.85
2023-02-11T22:21:03.831Z,30.98
2023-02-11T22:23:31.330Z,33.17
2023-02-11T22:25:58.325Z,32.10
2023-02-11T22:28:27.817Z,29.73
2023-02-11T22:30:56.316Z,31.40
2023-02-11T22:33:24.357Z,34.80
2023-02-11T22:35:58.546Z,34.78
2023-02-11T22:38:25.222Z,33.90
2023-02-11T22:40:51.706Z,35.00
2023-02-11T22:43:18.185Z,32.65
2023-02-11T22:45:44.687Z,33.70
2023-02-11T22:48:11.385Z,32.55
2023-02-11T22:50:37.860Z,37.15
2023-02-11T22:53:04.298Z,35.42
2023-02-11T22:55:30.729Z,34.08
2023-02-11T22:57:57.196Z,28.55
2023-02-11T23:00:26.243Z,33.40
2023-02-11T23:05:19.153Z,26.20
2023-02-11T23:07:45.560Z,28.35
2023-02-11T23:10:12.143Z,31.75
2023-02-11T23:12:38.798Z,28.65
2023-02-11T23:15:05.607Z,31.50
2023-02-11T23:17:32.045Z,35.30
2023-02-11T23:19:58.542Z,30.30
2023-02-11T23:22:25.014Z,32.28
2023-02-11T23:24:51.584Z,31.08
2023-02-11T23:27:18.059Z,29.08
2023-02-11T23:29:44.493Z,28.80
2023-02-11T23:32:11.251Z,30.60
2023-02-11T23:34:37.829Z,30.23
2023-02-11T23:37:04.267Z,31.67
2023-02-11T23:39:30.738Z,34.78
2023-02-11T23:41:59.010Z,32.20
2023-02-11T23:44:26.761Z,31.27
2023-02-11T23:46:53.448Z,34.22
2023-02-11T23:49:19.940Z,29.25
2023-02-11T23:51:46.503Z,38.67
2023-02-11T23:54:14.503Z,41.88
2023-02-11T23:56:42.658Z,29.50
2023-02-11T23:59:09.183Z,28.15
